La rose des vents
Donnes mto: Semaine 17/07/23 - 23/07/23 (S 29)
Date Horaire Temp. E. Hum. E. P.atmo. Pluie Vent 1mn Direction Ensoleilleme Ev.Tr. Solaire P. de rose Temp au vent Rafales
17/07/2023 00:00 24,1 C 91 % 1016,2 hPa 0,0 mm 0,0 km/h (0 Bft) N 0,00 h 0,000 mm 0 W/m 22,5 C 24,1 C 0,0 km/h (0 Bft)
17/07/2023 01:00 23,6 C 92 % 1016,2 hPa 0,0 mm 0,0 km/h (0 Bft) N 0,00 h 0,000 mm 0 W/m 22,3 C 23,6 C 0,0 km/h (0 Bft)
17/07/2023 02:00 23,1 C 93 % 1016,1 hPa 0,0 mm 0,0 km/h (0 Bft) N 0,00 h 0,000 mm 0 W/m 21,9 C 23,1 C 0,0 km/h (0 Bft)
17/07/2023 03:00 22,7 C 93 % 1015,7 hPa 0,0 mm 0,0 km/h (0 Bft) N 0,00 h 0,000 mm 0 W/m 21,5 C 22,7 C 0,0 km/h (0 Bft)
17/07/2023 04:00 22,3 C 93 % 1015,9 hPa 0,0 mm 0,0 km/h (0 Bft) N 0,00 h 0,000 mm 0 W/m 21,1 C 22,3 C 0,0 km/h (0 Bft)
17/07/2023 05:00 22,0 C 91 % 1015,9 hPa 0,0 mm 0,0 km/h (0 Bft) N 0,00 h 0,000 mm 0 W/m 20,5 C 22,0 C 0,0 km/h (0 Bft)
17/07/2023 06:00 21,7 C 91 % 1016,0 hPa 0,0 mm 0,0 km/h (0 Bft) N 0,00 h 0,000 mm 18 W/m 20,2 C 21,7 C 0,0 km/h (0 Bft)
17/07/2023 07:00 22,5 C 92 % 1016,9 hPa 0,0 mm 0,0 km/h (0 Bft) N 0,00 h 0,000 mm 56 W/m 21,2 C 22,5 C 0,0 km/h (0 Bft)
17/07/2023 08:00 24,0 C 88 % 1017,2 hPa 0,0 mm 0,0 km/h (0 Bft) N 0,00 h 0,025 mm 110 W/m 21,9 C 24,0 C 0,0 km/h (0 Bft)
17/07/2023 09:00 27,3 C 77 % 1017,3 hPa 0,0 mm 0,6 km/h (0 Bft) E 0,98 h 0,076 mm 443 W/m 22,9 C 27,3 C 1,9 km/h (1 Bft)
17/07/2023 10:00 29,9 C 69 % 1017,3 hPa 0,0 mm 2,3 km/h (1 Bft) E 0,97 h 0,279 mm 622 W/m 23,7 C 29,9 C 6,2 km/h (2 Bft)
17/07/2023 11:00 29,8 C 72 % 1017,5 hPa 0,0 mm 2,1 km/h (1 Bft) E 0,45 h 0,406 mm 487 W/m 24,2 C 29,8 C 5,4 km/h (1 Bft)
17/07/2023 12:00 30,2 C 71 % 1017,6 hPa 0,0 mm 2,0 km/h (1 Bft) E 0,38 h 0,356 mm 472 W/m 24,2 C 30,2 C 5,4 km/h (1 Bft)
17/07/2023 13:00 31,2 C 67 % 1017,2 hPa 0,0 mm 3,3 km/h (1 Bft) E 1,00 h 0,381 mm 881 W/m 24,4 C 31,2 C 8,3 km/h (2 Bft)
17/07/2023 14:00 31,7 C 66 % 1017,0 hPa 0,0 mm 3,8 km/h (1 Bft) E 0,97 h 0,584 mm 840 W/m 24,6 C 31,7 C 9,8 km/h (2 Bft)
17/07/2023 15:00 32,0 C 64 % 1016,7 hPa 0,0 mm 5,6 km/h (1 Bft) S 1,00 h 0,584 mm 758 W/m 24,4 C 32,0 C 10,9 km/h (2 Bft)
17/07/2023 16:00 31,2 C 65 % 1016,7 hPa 0,0 mm 8,1 km/h (2 Bft) S-SE 1,00 h 0,559 mm 643 W/m 23,7 C 31,2 C 14,1 km/h (3 Bft)
17/07/2023 17:00 30,3 C 70 % 1016,5 hPa 0,0 mm 8,0 km/h (2 Bft) S-SE 1,00 h 0,483 mm 491 W/m 24,1 C 30,3 C 13,0 km/h (3 Bft)
17/07/2023 18:00 30,4 C 67 % 1016,3 hPa 0,0 mm 2,7 km/h (1 Bft) S-SO 1,00 h 0,356 mm 320 W/m 23,7 C 30,4 C 6,3 km/h (2 Bft)
17/07/2023 19:00 29,5 C 72 % 1016,2 hPa 0,0 mm 0,3 km/h (0 Bft) S 0,67 h 0,229 mm 154 W/m 23,9 C 29,5 C 1,0 km/h (0 Bft)
17/07/2023 20:00 27,9 C 78 % 1016,3 hPa 0,0 mm 0,0 km/h (0 Bft) N 0,02 h 0,102 mm 35 W/m 23,6 C 27,9 C 0,1 km/h (0 Bft)
17/07/2023 21:00 26,4 C 83 % 1016,4 hPa 0,0 mm 0,0 km/h (0 Bft) N 0,00 h 0,025 mm 6 W/m 23,3 C 26,4 C 0,0 km/h (0 Bft)
17/07/2023 22:00 25,4 C 87 % 1016,7 hPa 0,0 mm 0,0 km/h (0 Bft) N 0,00 h 0,000 mm 0 W/m 23,2 C 25,4 C 0,0 km/h (0 Bft)
17/07/2023 23:00 24,8 C 89 % 1016,9 hPa 0,0 mm 0,0 km/h (0 Bft) N 0,00 h 0,025 mm 0 W/m 22,9 C 24,8 C 0,0 km/h (0 Bft)
18/07/2023 00:00 24,3 C 92 % 1017,1 hPa 0,0 mm 0,0 km/h (0 Bft) N 0,00 h 0,000 mm 0 W/m 22,8 C 24,3 C 0,0 km/h (0 Bft)
18/07/2023 01:00 23,9 C 92 % 1017,2 hPa 0,0 mm 0,0 km/h (0 Bft) N 0,00 h 0,000 mm 0 W/m 22,6 C 23,9 C 0,0 km/h (0 Bft)
18/07/2023 02:00 23,6 C 93 % 1016,8 hPa 0,0 mm 0,0 km/h (0 Bft) N 0,00 h 0,000 mm 0 W/m 22,3 C 23,6 C 0,0 km/h (0 Bft)
18/07/2023 03:00 23,3 C 94 % 1016,8 hPa 0,0 mm 0,0 km/h (0 Bft) N 0,00 h 0,000 mm 0 W/m 22,3 C 23,3 C 0,0 km/h (0 Bft)
18/07/2023 04:00 23,2 C 95 % 1016,4 hPa 0,0 mm 0,0 km/h (0 Bft) N 0,00 h 0,000 mm 0 W/m 22,4 C 23,2 C 0,0 km/h (0 Bft)
18/07/2023 05:00 23,4 C 96 % 1016,7 hPa 0,0 mm 0,0 km/h (0 Bft) N 0,00 h 0,000 mm 0 W/m 22,7 C 23,4 C 0,0 km/h (0 Bft)
18/07/2023 06:00 23,7 C 96 % 1016,9 hPa 0,0 mm 0,0 km/h (0 Bft) N 0,00 h 0,000 mm 16 W/m 23,1 C 23,7 C 0,0 km/h (0 Bft)
18/07/2023 07:00 23,8 C 96 % 1017,3 hPa 0,0 mm 0,0 km/h (0 Bft) N 0,00 h 0,000 mm 72 W/m 23,0 C 23,8 C 0,0 km/h (0 Bft)
18/07/2023 08:00 25,1 C 92 % 1017,4 hPa 0,0 mm 0,0 km/h (0 Bft) N 0,05 h 0,051 mm 123 W/m 23,8 C 25,1 C 0,0 km/h (0 Bft)
18/07/2023 09:00 28,1 C 81 % 1017,5 hPa 0,0 mm 0,2 km/h (0 Bft) S 0,93 h 0,076 mm 441 W/m 24,6 C 28,1 C 0,7 km/h (0 Bft)
18/07/2023 10:00 31,2 C 70 % 1017,2 hPa 0,0 mm 1,8 km/h (1 Bft) S 1,00 h 0,279 mm 620 W/m 25,1 C 31,2 C 4,6 km/h (1 Bft)
18/07/2023 11:00 31,2 C 71 % 1017,2 hPa 0,0 mm 4,3 km/h (1 Bft) E 0,88 h 0,432 mm 651 W/m 25,2 C 31,2 C 9,6 km/h (2 Bft)
18/07/2023 12:00 31,3 C 71 % 1017,2 hPa 0,0 mm 4,5 km/h (1 Bft) E 0,95 h 0,457 mm 801 W/m 25,4 C 31,3 C 9,7 km/h (2 Bft)
18/07/2023 13:00 31,4 C 70 % 1017,0 hPa 0,0 mm 5,0 km/h (1 Bft) E 1,00 h 0,559 mm 862 W/m 25,2 C 31,4 C 10,7 km/h (2 Bft)
18/07/2023 14:00 31,4 C 68 % 1016,7 hPa 0,0 mm 4,2 km/h (1 Bft) E 1,00 h 0,610 mm 841 W/m 24,8 C 31,4 C 9,3 km/h (2 Bft)
18/07/2023 15:00 32,2 C 66 % 1016,1 hPa 0,0 mm 3,3 km/h (1 Bft) E 1,00 h 0,584 mm 771 W/m 24,9 C 32,2 C 7,8 km/h (2 Bft)
18/07/2023 16:00 32,6 C 65 % 1015,6 hPa 0,0 mm 3,2 km/h (1 Bft) E 1,00 h 0,533 mm 648 W/m 25,0 C 32,6 C 7,5 km/h (2 Bft)
18/07/2023 17:00 32,8 C 61 % 1015,1 hPa 0,0 mm 5,3 km/h (1 Bft) S 1,00 h 0,457 mm 503 W/m 24,3 C 32,8 C 9,6 km/h (2 Bft)
18/07/2023 18:00 32,1 C 57 % 1014,7 hPa 0,0 mm 3,0 km/h (1 Bft) S 1,00 h 0,381 mm 336 W/m 22,4 C 32,1 C 5,9 km/h (2 Bft)
18/07/2023 19:00 31,4 C 59 % 1014,4 hPa 0,0 mm 0,0 km/h (0 Bft) N 0,77 h 0,254 mm 164 W/m 22,3 C 31,4 C 0,2 km/h (0 Bft)
18/07/2023 20:00 28,6 C 70 % 1014,5 hPa 0,0 mm 0,0 km/h (0 Bft) N 0,02 h 0,127 mm 34 W/m 22,5 C 28,6 C 0,0 km/h (0 Bft)
18/07/2023 21:00 26,5 C 78 % 1014,6 hPa 0,0 mm 0,0 km/h (0 Bft) N 0,00 h 0,025 mm 6 W/m 22,4 C 26,5 C 0,0 km/h (0 Bft)
18/07/2023 22:00 25,3 C 82 % 1014,6 hPa 0,0 mm 0,0 km/h (0 Bft) N 0,00 h 0,000 mm 0 W/m 22,1 C 25,3 C 0,0 km/h (0 Bft)
18/07/2023 23:00 24,5 C 86 % 1014,6 hPa 0,0 mm 0,0 km/h (0 Bft) N 0,00 h 0,025 mm 0 W/m 21,9 C 24,5 C 0,0 km/h (0 Bft)
19/07/2023 00:00 23,8 C 88 % 1014,6 hPa 0,0 mm 0,0 km/h (0 Bft) N 0,00 h 0,025 mm 0 W/m 21,6 C 23,8 C 0,0 km/h (0 Bft)
19/07/2023 01:00 23,2 C 90 % 1014,5 hPa 0,0 mm 0,0 km/h (0 Bft) N 0,00 h 0,025 mm 0 W/m 21,5 C 23,2 C 0,0 km/h (0 Bft)
19/07/2023 02:00 23,2 C 94 % 1014,3 hPa 0,0 mm 0,0 km/h (0 Bft) N 0,00 h 0,000 mm 0 W/m 22,1 C 23,2 C 0,0 km/h (0 Bft)
19/07/2023 03:00 23,5 C 95 % 1014,0 hPa 0,0 mm 0,0 km/h (0 Bft) N 0,00 h 0,000 mm 0 W/m 22,6 C 23,5 C 0,0 km/h (0 Bft)
19/07/2023 04:00 23,7 C 94 % 1013,5 hPa 0,0 mm 0,0 km/h (0 Bft) N 0,00 h 0,000 mm 0 W/m 22,6 C 23,7 C 0,0 km/h (0 Bft)
19/07/2023 05:00 23,5 C 91 % 1013,7 hPa 0,0 mm 0,0 km/h (0 Bft) N 0,00 h 0,000 mm 0 W/m 21,9 C 23,5 C 0,0 km/h (0 Bft)
19/07/2023 06:00 23,7 C 88 % 1014,0 hPa 0,0 mm 0,0 km/h (0 Bft) N 0,00 h 0,000 mm 19 W/m 21,6 C 23,7 C 0,0 km/h (0 Bft)
19/07/2023 07:00 23,9 C 86 % 1013,2 hPa 0,0 mm 0,0 km/h (0 Bft) N 0,00 h 0,000 mm 99 W/m 21,5 C 23,9 C 0,0 km/h (0 Bft)
19/07/2023 08:00 25,6 C 82 % 1012,5 hPa 0,0 mm 0,0 km/h (0 Bft) N 0,02 h 0,076 mm 147 W/m 22,4 C 25,6 C 0,0 km/h (0 Bft)
19/07/2023 09:00 27,5 C 76 % 1012,6 hPa 0,0 mm 0,6 km/h (0 Bft) S 0,92 h 0,102 mm 416 W/m 23,0 C 27,5 C 1,9 km/h (1 Bft)
19/07/2023 10:00 29,6 C 70 % 1012,8 hPa 0,0 mm 2,1 km/h (1 Bft) S 0,85 h 0,279 mm 552 W/m 23,5 C 29,6 C 5,4 km/h (1 Bft)
19/07/2023 11:00 30,9 C 66 % 1012,8 hPa 0,0 mm 3,4 km/h (1 Bft) E 1,00 h 0,381 mm 711 W/m 23,9 C 30,9 C 7,3 km/h (2 Bft)
19/07/2023 12:00 31,0 C 68 % 1012,2 hPa 0,0 mm 3,8 km/h (1 Bft) E 1,00 h 0,508 mm 800 W/m 24,4 C 31,0 C 8,7 km/h (2 Bft)
19/07/2023 13:00 32,1 C 66 % 1011,8 hPa 0,0 mm 3,0 km/h (1 Bft) E 0,93 h 0,559 mm 802 W/m 24,8 C 32,1 C 7,5 km/h (2 Bft)
19/07/2023 14:00 31,4 C 68 % 1010,8 hPa 0,0 mm 6,1 km/h (2 Bft) S-SE 0,80 h 0,559 mm 762 W/m 24,9 C 31,4 C 11,7 km/h (2 Bft)
19/07/2023 15:00 32,0 C 67 % 1010,6 hPa 0,0 mm 4,1 km/h (1 Bft) S-SO 0,93 h 0,559 mm 708 W/m 25,1 C 32,0 C 9,0 km/h (2 Bft)
19/07/2023 16:00 34,0 C 62 % 1009,8 hPa 0,0 mm 2,5 km/h (1 Bft) S-SO 1,00 h 0,508 mm 659 W/m 25,7 C 34,0 C 6,4 km/h (2 Bft)
19/07/2023 17:00 32,7 C 66 % 1009,1 hPa 0,0 mm 1,6 km/h (1 Bft) E 0,87 h 0,483 mm 460 W/m 25,6 C 32,7 C 4,6 km/h (1 Bft)
19/07/2023 18:00 30,9 C 72 % 1008,3 hPa 0,0 mm 1,1 km/h (1 Bft) E-SE 1,00 h 0,330 mm 329 W/m 25,3 C 30,9 C 3,3 km/h (1 Bft)
19/07/2023 19:00 29,5 C 77 % 1008,0 hPa 0,0 mm 0,2 km/h (0 Bft) E-SE 0,63 h 0,229 mm 159 W/m 25,0 C 29,5 C 0,6 km/h (0 Bft)
19/07/2023 20:00 27,5 C 84 % 1008,1 hPa 0,0 mm 0,0 km/h (0 Bft) N 0,03 h 0,102 mm 37 W/m 24,5 C 27,5 C 0,0 km/h (0 Bft)
19/07/2023 21:00 26,0 C 90 % 1008,1 hPa 0,0 mm 0,0 km/h (0 Bft) N 0,00 h 0,025 mm 6 W/m 24,3 C 26,0 C 0,0 km/h (0 Bft)
19/07/2023 22:00 25,2 C 93 % 1008,5 hPa 0,0 mm 0,0 km/h (0 Bft) N 0,00 h 0,000 mm 0 W/m 24,0 C 25,2 C 0,0 km/h (0 Bft)
19/07/2023 23:00 24,7 C 95 % 1008,2 hPa 0,0 mm 0,0 km/h (0 Bft) N 0,00 h 0,000 mm 0 W/m 23,9 C 24,7 C 0,0 km/h (0 Bft)
20/07/2023 00:00 24,5 C 96 % 1008,2 hPa 0,0 mm 0,0 km/h (0 Bft) N 0,00 h 0,000 mm 0 W/m 23,8 C 24,5 C 0,0 km/h (0 Bft)
20/07/2023 01:00 24,3 C 97 % 1008,1 hPa 0,0 mm 0,0 km/h (0 Bft) N 0,00 h 0,000 mm 0 W/m 23,8 C 24,3 C 0,0 km/h (0 Bft)
20/07/2023 02:00 24,3 C 98 % 1007,7 hPa 0,0 mm 0,0 km/h (0 Bft) N 0,00 h 0,000 mm 0 W/m 23,9 C 24,3 C 0,0 km/h (0 Bft)
20/07/2023 03:00 24,2 C 98 % 1007,7 hPa 0,2 mm 0,0 km/h (0 Bft) N 0,00 h 0,000 mm 0 W/m 23,9 C 24,2 C 0,0 km/h (0 Bft)
20/07/2023 04:00 24,0 C 98 % 1007,6 hPa 0,0 mm 0,0 km/h (0 Bft) N 0,00 h 0,000 mm 0 W/m 23,7 C 24,0 C 0,0 km/h (0 Bft)
20/07/2023 05:00 23,5 C 98 % 1007,9 hPa 0,0 mm 0,0 km/h (0 Bft) N 0,00 h 0,000 mm 0 W/m 23,2 C 23,5 C 0,0 km/h (0 Bft)
20/07/2023 06:00 23,2 C 98 % 1008,4 hPa 0,0 mm 0,0 km/h (0 Bft) N 0,02 h 0,000 mm 18 W/m 22,9 C 23,2 C 0,0 km/h (0 Bft)
20/07/2023 07:00 23,2 C 98 % 1008,7 hPa 0,0 mm 0,0 km/h (0 Bft) N 0,00 h 0,000 mm 61 W/m 22,9 C 23,2 C 0,0 km/h (0 Bft)
20/07/2023 08:00 23,9 C 98 % 1009,2 hPa 0,0 mm 0,0 km/h (0 Bft) N 0,00 h 0,025 mm 110 W/m 23,5 C 23,9 C 0,0 km/h (0 Bft)
20/07/2023 09:00 26,7 C 87 % 1009,4 hPa 0,0 mm 0,3 km/h (0 Bft) SE 0,92 h 0,076 mm 496 W/m 24,3 C 26,7 C 1,3 km/h (1 Bft)
20/07/2023 10:00 30,2 C 71 % 1009,3 hPa 0,0 mm 2,2 km/h (1 Bft) SE 0,98 h 0,305 mm 670 W/m 24,2 C 30,2 C 5,5 km/h (1 Bft)
20/07/2023 11:00 30,9 C 67 % 1009,3 hPa 0,0 mm 3,0 km/h (1 Bft) E 0,90 h 0,432 mm 733 W/m 24,0 C 30,9 C 7,3 km/h (2 Bft)
20/07/2023 12:00 31,4 C 65 % 1009,1 hPa 0,0 mm 3,9 km/h (1 Bft) E 1,00 h 0,508 mm 839 W/m 24,1 C 31,4 C 8,9 km/h (2 Bft)
20/07/2023 13:00 31,3 C 67 % 1008,9 hPa 0,0 mm 5,0 km/h (1 Bft) E 1,00 h 0,584 mm 886 W/m 24,5 C 31,3 C 10,8 km/h (2 Bft)
20/07/2023 14:00 31,5 C 69 % 1008,6 hPa 0,0 mm 3,1 km/h (1 Bft) E 0,92 h 0,610 mm 844 W/m 25,1 C 31,5 C 8,3 km/h (2 Bft)
20/07/2023 15:00 31,5 C 70 % 1008,1 hPa 0,0 mm 2,9 km/h (1 Bft) E 0,82 h 0,584 mm 724 W/m 25,3 C 31,5 C 7,6 km/h (2 Bft)
20/07/2023 16:00 31,1 C 71 % 1007,7 hPa 0,0 mm 3,2 km/h (1 Bft) E 0,83 h 0,508 mm 612 W/m 25,2 C 31,1 C 7,6 km/h (2 Bft)
20/07/2023 17:00 30,7 C 72 % 1007,5 hPa 0,0 mm 2,5 km/h (1 Bft) E 1,00 h 0,432 mm 516 W/m 25,2 C 30,7 C 6,3 km/h (2 Bft)
20/07/2023 18:00 29,9 C 75 % 1007,0 hPa 0,0 mm 1,0 km/h (0 Bft) E 1,00 h 0,356 mm 339 W/m 24,9 C 29,9 C 3,0 km/h (1 Bft)
20/07/2023 19:00 28,9 C 76 % 1006,6 hPa 0,0 mm 0,1 km/h (0 Bft) E 0,85 h 0,229 mm 167 W/m 24,2 C 28,9 C 0,9 km/h (0 Bft)
20/07/2023 20:00 27,2 C 82 % 1006,7 hPa 0,0 mm 0,0 km/h (0 Bft) N 0,03 h 0,102 mm 31 W/m 23,7 C 27,2 C 0,1 km/h (0 Bft)
20/07/2023 21:00 26,0 C 86 % 1006,7 hPa 0,0 mm 0,0 km/h (0 Bft) N 0,00 h 0,025 mm 6 W/m 23,5 C 26,0 C 0,0 km/h (0 Bft)
20/07/2023 22:00 25,0 C 89 % 1007,1 hPa 0,0 mm 0,0 km/h (0 Bft) N 0,00 h 0,000 mm 0 W/m 23,0 C 25,0 C 0,0 km/h (0 Bft)
20/07/2023 23:00 24,5 C 92 % 1007,1 hPa 0,0 mm 0,0 km/h (0 Bft) N 0,00 h 0,000 mm 0 W/m 23,0 C 24,5 C 0,0 km/h (0 Bft)
21/07/2023 00:00 24,2 C 94 % 1007,3 hPa 0,0 mm 0,0 km/h (0 Bft) N 0,00 h 0,000 mm 0 W/m 23,1 C 24,2 C 0,0 km/h (0 Bft)
21/07/2023 01:00 24,0 C 95 % 1007,1 hPa 0,0 mm 0,0 km/h (0 Bft) N 0,00 h 0,000 mm 0 W/m 23,1 C 24,0 C 0,0 km/h (0 Bft)
21/07/2023 02:00 23,7 C 96 % 1007,1 hPa 0,0 mm 0,0 km/h (0 Bft) N 0,00 h 0,000 mm 0 W/m 23,0 C 23,7 C 0,0 km/h (0 Bft)
21/07/2023 03:00 23,3 C 96 % 1007,1 hPa 0,0 mm 0,0 km/h (0 Bft) N 0,00 h 0,000 mm 0 W/m 22,6 C 23,3 C 0,0 km/h (0 Bft)
21/07/2023 04:00 22,4 C 95 % 1006,9 hPa 0,0 mm 0,0 km/h (0 Bft) N 0,00 h 0,000 mm 0 W/m 21,6 C 22,4 C 0,0 km/h (0 Bft)
21/07/2023 05:00 22,0 C 92 % 1007,0 hPa 0,0 mm 0,0 km/h (0 Bft) N 0,00 h 0,000 mm 0 W/m 20,7 C 22,0 C 0,0 km/h (0 Bft)
21/07/2023 06:00 22,0 C 89 % 1007,3 hPa 0,0 mm 0,0 km/h (0 Bft) N 0,15 h 0,000 mm 20 W/m 20,1 C 22,0 C 0,1 km/h (0 Bft)
21/07/2023 07:00 22,8 C 87 % 1007,7 hPa 0,0 mm 0,0 km/h (0 Bft) N 0,00 h 0,025 mm 69 W/m 20,6 C 22,8 C 0,0 km/h (0 Bft)
21/07/2023 08:00 24,5 C 82 % 1008,1 hPa 0,0 mm 0,0 km/h (0 Bft) N 0,00 h 0,051 mm 108 W/m 21,2 C 24,5 C 0,0 km/h (0 Bft)
21/07/2023 09:00 25,6 C 86 % 1008,3 hPa 0,4 mm 0,0 km/h (0 Bft) N 0,60 h 0,076 mm 334 W/m 23,0 C 25,6 C 0,0 km/h (0 Bft)
21/07/2023 10:00 28,7 C 75 % 1007,8 hPa 0,0 mm 1,6 km/h (1 Bft) S 0,98 h 0,203 mm 638 W/m 23,7 C 28,7 C 3,6 km/h (1 Bft)
21/07/2023 11:00 30,4 C 71 % 1007,8 hPa 0,0 mm 4,6 km/h (1 Bft) S 0,98 h 0,432 mm 769 W/m 24,5 C 30,4 C 9,6 km/h (2 Bft)
21/07/2023 12:00 31,4 C 69 % 1007,3 hPa 0,0 mm 3,6 km/h (1 Bft) E 0,83 h 0,508 mm 784 W/m 25,0 C 31,4 C 10,0 km/h (2 Bft)
21/07/2023 13:00 32,3 C 61 % 1006,8 hPa 0,0 mm 5,3 km/h (1 Bft) S 1,00 h 0,559 mm 861 W/m 23,7 C 32,3 C 11,9 km/h (2 Bft)
21/07/2023 14:00 32,8 C 51 % 1006,4 hPa 0,0 mm 6,2 km/h (2 Bft) S 1,00 h 0,610 mm 842 W/m 21,3 C 32,8 C 12,0 km/h (2 Bft)
21/07/2023 15:00 34,0 C 42 % 1005,9 hPa 0,0 mm 7,7 km/h (2 Bft) S 1,00 h 0,635 mm 780 W/m 19,2 C 34,0 C 13,5 km/h (3 Bft)
21/07/2023 16:00 35,2 C 44 % 1005,3 hPa 0,0 mm 2,5 km/h (1 Bft) E 1,00 h 0,635 mm 664 W/m 20,9 C 35,2 C 6,0 km/h (2 Bft)
21/07/2023 17:00 35,1 C 49 % 1004,8 hPa 0,0 mm 1,3 km/h (1 Bft) E 1,00 h 0,508 mm 514 W/m 22,7 C 35,1 C 4,9 km/h (1 Bft)
21/07/2023 18:00 34,4 C 43 % 1004,7 hPa 0,0 mm 5,0 km/h (1 Bft) E 1,00 h 0,381 mm 352 W/m 19,1 C 34,4 C 10,4 km/h (2 Bft)
21/07/2023 19:00 34,7 C 23 % 1005,0 hPa 0,0 mm 7,9 km/h (2 Bft) O-SO 0,27 h 0,305 mm 122 W/m 10,5 C 34,7 C 17,5 km/h (3 Bft)
21/07/2023 20:00 32,8 C 25 % 1005,5 hPa 0,0 mm 5,0 km/h (1 Bft) O-SO 0,13 h 0,229 mm 32 W/m 10,3 C 32,8 C 12,5 km/h (3 Bft)
21/07/2023 21:00 30,8 C 29 % 1006,4 hPa 0,0 mm 1,6 km/h (1 Bft) O-SO 0,00 h 0,102 mm 6 W/m 10,6 C 30,8 C 5,8 km/h (2 Bft)
21/07/2023 22:00 28,9 C 30 % 1007,5 hPa 0,0 mm 3,2 km/h (1 Bft) O-SO 0,00 h 0,051 mm 0 W/m 9,8 C 28,9 C 9,0 km/h (2 Bft)
21/07/2023 23:00 28,1 C 35 % 1008,3 hPa 0,0 mm 1,4 km/h (1 Bft) S-SO 0,00 h 0,102 mm 0 W/m 11,2 C 28,1 C 5,1 km/h (1 Bft)
22/07/2023 00:00 26,8 C 61 % 1008,7 hPa 0,0 mm 0,1 km/h (0 Bft) O-NO 0,00 h 0,076 mm 0 W/m 18,5 C 26,8 C 0,5 km/h (0 Bft)
22/07/2023 01:00 24,8 C 78 % 1008,7 hPa 0,0 mm 0,0 km/h (0 Bft) N 0,00 h 0,051 mm 0 W/m 20,7 C 24,8 C 0,0 km/h (0 Bft)
22/07/2023 02:00 23,6 C 78 % 1009,3 hPa 0,0 mm 0,0 km/h (0 Bft) N 0,00 h 0,025 mm 0 W/m 19,5 C 23,6 C 0,0 km/h (0 Bft)
22/07/2023 03:00 23,2 C 83 % 1009,8 hPa 0,0 mm 0,0 km/h (0 Bft) N 0,00 h 0,025 mm 0 W/m 20,1 C 23,2 C 0,0 km/h (0 Bft)
22/07/2023 04:00 22,7 C 85 % 1010,2 hPa 0,0 mm 0,0 km/h (0 Bft) N 0,00 h 0,025 mm 0 W/m 20,0 C 22,7 C 0,0 km/h (0 Bft)
22/07/2023 05:00 22,1 C 83 % 1010,8 hPa 0,0 mm 0,0 km/h (0 Bft) N 0,00 h 0,025 mm 0 W/m 19,1 C 22,1 C 0,0 km/h (0 Bft)
22/07/2023 06:00 22,1 C 82 % 1011,4 hPa 0,0 mm 0,0 km/h (0 Bft) N 0,13 h 0,000 mm 21 W/m 18,9 C 22,1 C 0,0 km/h (0 Bft)
22/07/2023 07:00 22,8 C 81 % 1011,8 hPa 0,0 mm 0,0 km/h (0 Bft) N 0,00 h 0,025 mm 77 W/m 19,3 C 22,8 C 0,0 km/h (0 Bft)
22/07/2023 08:00 24,7 C 82 % 1011,9 hPa 0,0 mm 0,0 km/h (0 Bft) N 0,07 h 0,051 mm 106 W/m 21,4 C 24,7 C 0,1 km/h (0 Bft)
22/07/2023 09:00 27,4 C 71 % 1011,5 hPa 0,0 mm 0,5 km/h (0 Bft) E-SE 0,98 h 0,076 mm 464 W/m 21,7 C 27,4 C 1,9 km/h (1 Bft)
22/07/2023 10:00 30,9 C 54 % 1011,2 hPa 0,0 mm 3,6 km/h (1 Bft) S 1,00 h 0,305 mm 621 W/m 20,3 C 30,9 C 7,8 km/h (2 Bft)
22/07/2023 11:00 32,8 C 43 % 1011,2 hPa 0,0 mm 4,5 km/h (1 Bft) S 1,00 h 0,457 mm 754 W/m 18,6 C 32,8 C 9,7 km/h (2 Bft)
22/07/2023 12:00 34,4 C 32 % 1011,1 hPa 0,0 mm 8,5 km/h (2 Bft) S 1,00 h 0,559 mm 840 W/m 15,0 C 34,4 C 14,8 km/h (3 Bft)
22/07/2023 13:00 34,6 C 30 % 1010,7 hPa 0,0 mm 12,3 km/h (3 Bft) S 1,00 h 0,686 mm 885 W/m 14,2 C 34,6 C 20,6 km/h (4 Bft)
22/07/2023 14:00 36,6 C 15 % 1010,2 hPa 0,0 mm 18,1 km/h (3 Bft) S-SO 1,00 h 0,787 mm 875 W/m 5,9 C 36,6 C 29,8 km/h (5 Bft)
22/07/2023 15:00 36,9 C 15 % 1010,1 hPa 0,0 mm 16,3 km/h (3 Bft) S-SO 1,00 h 0,914 mm 794 W/m 6,0 C 36,9 C 28,1 km/h (4 Bft)
22/07/2023 16:00 36,7 C 16 % 1010,3 hPa 0,0 mm 15,0 km/h (3 Bft) S-SO 1,00 h 0,838 mm 661 W/m 7,0 C 36,7 C 25,7 km/h (4 Bft)
22/07/2023 17:00 36,2 C 16 % 1010,4 hPa 0,0 mm 14,3 km/h (3 Bft) S-SO 1,00 h 0,711 mm 513 W/m 6,7 C 36,2 C 25,9 km/h (4 Bft)
22/07/2023 18:00 35,1 C 17 % 1010,4 hPa 0,0 mm 9,5 km/h (2 Bft) S-SO 0,57 h 0,610 mm 247 W/m 6,5 C 35,1 C 18,8 km/h (3 Bft)
22/07/2023 19:00 33,8 C 19 % 1010,4 hPa 0,0 mm 11,4 km/h (2 Bft) S-SO 0,68 h 0,330 mm 156 W/m 6,6 C 33,8 C 21,0 km/h (4 Bft)
22/07/2023 20:00 32,3 C 22 % 1010,8 hPa 0,0 mm 9,6 km/h (2 Bft) S-SO 0,05 h 0,305 mm 40 W/m 7,5 C 32,3 C 19,9 km/h (4 Bft)
22/07/2023 21:00 30,4 C 26 % 1011,5 hPa 0,0 mm 4,5 km/h (1 Bft) O-SO 0,00 h 0,178 mm 5 W/m 8,5 C 30,4 C 11,8 km/h (2 Bft)
22/07/2023 22:00 28,5 C 30 % 1012,3 hPa 0,0 mm 4,3 km/h (1 Bft) O-SO 0,00 h 0,076 mm 0 W/m 9,0 C 28,5 C 11,3 km/h (2 Bft)
22/07/2023 23:00 27,3 C 32 % 1012,4 hPa 0,0 mm 5,9 km/h (2 Bft) O-SO 0,00 h 0,127 mm 0 W/m 9,2 C 27,3 C 14,6 km/h (3 Bft)
23/07/2023 00:00 27,1 C 33 % 1012,7 hPa 0,0 mm 3,8 km/h (1 Bft) O-SO 0,00 h 0,127 mm 0 W/m 9,4 C 27,1 C 10,8 km/h (2 Bft)
23/07/2023 01:00 26,2 C 34 % 1012,7 hPa 0,0 mm 3,8 km/h (1 Bft) O-SO 0,00 h 0,102 mm 0 W/m 9,3 C 26,2 C 9,2 km/h (2 Bft)
23/07/2023 02:00 25,7 C 35 % 1012,9 hPa 0,0 mm 4,4 km/h (1 Bft) O-SO 0,00 h 0,102 mm 0 W/m 9,1 C 25,7 C 10,8 km/h (2 Bft)
23/07/2023 03:00 25,2 C 36 % 1013,0 hPa 0,0 mm 0,6 km/h (0 Bft) O-SO 0,00 h 0,102 mm 0 W/m 9,1 C 25,2 C 1,8 km/h (1 Bft)
23/07/2023 04:00 24,1 C 51 % 1013,5 hPa 0,0 mm 0,0 km/h (0 Bft) N 0,00 h 0,076 mm 0 W/m 12,9 C 24,1 C 0,0 km/h (0 Bft)
23/07/2023 05:00 23,3 C 61 % 1014,0 hPa 0,0 mm 0,0 km/h (0 Bft) N 0,00 h 0,051 mm 0 W/m 15,3 C 23,3 C 0,0 km/h (0 Bft)
23/07/2023 06:00 22,3 C 56 % 1014,3 hPa 0,0 mm 0,0 km/h (0 Bft) N 0,03 h 0,000 mm 19 W/m 13,0 C 22,3 C 0,0 km/h (0 Bft)
23/07/2023 07:00 22,5 C 53 % 1014,4 hPa 0,0 mm 0,0 km/h (0 Bft) N 0,00 h 0,025 mm 53 W/m 12,4 C 22,5 C 0,0 km/h (0 Bft)
23/07/2023 08:00 24,4 C 47 % 1014,7 hPa 0,0 mm 0,0 km/h (0 Bft) N 0,10 h 0,051 mm 123 W/m 12,3 C 24,4 C 0,0 km/h (0 Bft)
23/07/2023 09:00 27,8 C 42 % 1015,0 hPa 0,0 mm 0,1 km/h (0 Bft) SE 0,98 h 0,102 mm 455 W/m 13,4 C 27,8 C 0,6 km/h (0 Bft)
23/07/2023 10:00 30,7 C 46 % 1014,7 hPa 0,0 mm 2,5 km/h (1 Bft) E 1,00 h 0,305 mm 619 W/m 17,4 C 30,7 C 6,4 km/h (2 Bft)
23/07/2023 11:00 30,9 C 58 % 1015,2 hPa 0,0 mm 3,6 km/h (1 Bft) E 0,97 h 0,457 mm 742 W/m 21,7 C 30,9 C 9,8 km/h (2 Bft)
23/07/2023 12:00 30,5 C 65 % 1015,3 hPa 0,0 mm 1,9 km/h (1 Bft) E 1,00 h 0,508 mm 851 W/m 23,1 C 30,5 C 6,8 km/h (2 Bft)
23/07/2023 13:00 30,4 C 65 % 1015,0 hPa 0,0 mm 3,6 km/h (1 Bft) E 1,00 h 0,559 mm 880 W/m 23,1 C 30,4 C 10,1 km/h (2 Bft)
23/07/2023 14:00 30,4 C 60 % 1015,2 hPa 0,0 mm 2,3 km/h (1 Bft) E 1,00 h 0,584 mm 841 W/m 21,8 C 30,4 C 6,8 km/h (2 Bft)
23/07/2023 15:00 31,4 C 54 % 1014,8 hPa 0,0 mm 1,6 km/h (1 Bft) E 1,00 h 0,584 mm 776 W/m 21,0 C 31,4 C 5,0 km/h (1 Bft)
23/07/2023 16:00 31,6 C 53 % 1014,1 hPa 0,0 mm 3,3 km/h (1 Bft) E 1,00 h 0,533 mm 647 W/m 20,8 C 31,6 C 8,8 km/h (2 Bft)
23/07/2023 17:00 30,8 C 58 % 1013,7 hPa 0,0 mm 2,2 km/h (1 Bft) E 1,00 h 0,457 mm 492 W/m 21,5 C 30,8 C 6,3 km/h (2 Bft)
23/07/2023 18:00 29,8 C 62 % 1013,3 hPa 0,0 mm 0,4 km/h (0 Bft) E 1,00 h 0,356 mm 319 W/m 21,7 C 29,8 C 1,6 km/h (1 Bft)
23/07/2023 19:00 28,4 C 66 % 1013,1 hPa 0,0 mm 0,1 km/h (0 Bft) E 0,73 h 0,229 mm 150 W/m 21,5 C 28,4 C 0,8 km/h (0 Bft)
23/07/2023 20:00 26,7 C 72 % 1013,1 hPa 0,0 mm 0,0 km/h (0 Bft) N 0,02 h 0,102 mm 25 W/m 21,2 C 26,7 C 0,0 km/h (0 Bft)
23/07/2023 21:00 25,1 C 76 % 1013,0 hPa 0,0 mm 0,0 km/h (0 Bft) N 0,00 h 0,025 mm 5 W/m 20,6 C 25,1 C 0,0 km/h (0 Bft)
23/07/2023 22:00 24,1 C 80 % 1013,4 hPa 0,0 mm 0,0 km/h (0 Bft) N 0,00 h 0,000 mm 0 W/m 20,4 C 24,1 C 0,0 km/h (0 Bft)
23/07/2023 23:00 23,2 C 82 % 1013,3 hPa 0,0 mm 0,0 km/h (0 Bft) N 0,00 h 0,025 mm 0 W/m 20,1 C 23,2 C 0,0 km/h (0 Bft)
Min-Date _ 17/07/23 22/07/23 21/07/23 - 17/07/23 - - - - 22/07/23 17/07/23 17/07/23
_ Min-Heure 06:06 15:13 18:00 - 00:00 - - - - 15:24 06:06 00:00
Minimum _ 21,7 C 14 % 1004,5 hPa - 0,0 km/h (0 Bft) - - - - 5,1 C 21,7 C 0,0 km/h (0 Bft)
Max-Date _ 22/07/23 20/07/23 17/07/23 21/07/23 22/07/23 - 17/07/23 22/07/23 20/07/23 19/07/23 22/07/23 22/07/23
_ Max-Heure 15:17 02:13 12:00 09:03 14:55 - 09:01 15:01 14:02 16:31 15:17 14:50
Maximum _ 37,2 C 98 % 1017,7 hPa 0,4 mm 29,0 km/h
S-SO (5 Bft)
- 0,02 h 0,914 mm 1018 W/m 26,0 C 37,2 C 45,1 km/h
S-SO (6 Bft)
Moyenne _ 27,8 C 70 % 1012,0 hPa #0,6 mm 2,1 km/h (1 Bft) E #71:33 h #36,982 mm 428 W/m 20,7 C 27,8 C 4,7 km/h (1 Bft)
Roquefort les pins